CBBC

Bella Bella / Campbell Island Airport

Bella Bella, , Canada
METAR CBBC 200653Z AUTO 00000KT 6SM RA BR FEW008 SCT017 BKN024 OVC029 05/04 A2956 RMK SLP014
Observed Flight Rules
Jan-20 @ 06:53 UTC (9 minutes ago) Marginal Visual Flight Rules
Wind Visibility Clouds Conditions
Calm 6 miles
  • Few at 800' AGL
  • Scattered at 1,700' AGL
  • Broken at 2,400' AGL
  • Overcast at 2,900' AGL
  • Rain
  • Mist
Temperatures Readings
Current 5°C / 41°F
Dewpoint 4°C / 39°F
Humidity 93%
Altimeter 29.56" Hg
Pressure 1001.4 hPa
Elevation 43
METAR CBBC 200653Z AUTO 00000KT 6SM RA BR FEW008 SCT017 BKN024 OVC029 05/04 A2956 RMK SLP014
Observed Flight Rules
Jan-20 @ 06:53 UTC
(9 minutes ago)
MVFR
Wind Visibility
Calm 6 miles
Clouds
  • Few at 800' AGL
  • Scattered at 1,700' AGL
  • Broken at 2,400' AGL
  • Overcast at 2,900' AGL
Conditions
  • Rain
  • Mist
Temperature Dewpoint
5°C / 41°F 4°C / 39°F
Humidity Altimeter Pressure
93% 29.56" Hg 1001.4 hPa